Time;durP1;ratioP1;P1;durP2;ratioP2;P2;SDS_P1;SDS_P2;PMS_P1;PMS_P2;Temp;Humidity;BMP_temperature;BMP_pressure;BME280_temperature;BME280_humidity;BME280_pressure;Samples;Min_cycle;Max_cycle;Signal;HPM_P1;HPM_P2
2021/12/26 00:00:16;;;;;;;7.83;4.20;;;;;;;;;;5057578;28;20169;-61
2021/12/26 00:02:42;;;;;;;7.37;4.53;;;;;;;;;;5057664;28;20173;-61
2021/12/26 00:05:09;;;;;;;8.93;4.53;;;;;;;;;;5057118;28;20169;-61
2021/12/26 00:07:35;;;;;;;6.83;4.00;;;;;;;;;;5056677;28;20169;-61
2021/12/26 00:10:01;;;;;;;10.90;4.57;;;;;;;;;;5056417;28;20623;-61
2021/12/26 00:12:27;;;;;;;6.90;4.23;;;;;;;;;;5056055;28;20508;-61
2021/12/26 00:14:53;;;;;;;6.30;4.43;;;;;;;;;;5057765;28;20180;-61
2021/12/26 00:17:19;;;;;;;10.10;4.87;;;;;;;;;;5058004;28;20162;-61
2021/12/26 00:19:45;;;;;;;8.10;4.83;;;;;;;;;;5057987;28;20177;-61
2021/12/26 00:22:11;;;;;;;7.80;4.53;;;;;;;;;;5058815;28;20177;-61
2021/12/26 00:24:37;;;;;;;9.50;4.63;;;;;;;;;;5059389;28;20169;-61
2021/12/26 00:27:03;;;;;;;8.57;5.00;;;;;;;;;;5059631;28;20189;-60
2021/12/26 00:29:28;;;;;;;9.33;5.20;;;;;;;;;;5058915;28;20200;-61
2021/12/26 00:31:54;;;;;;;9.27;4.30;;;;;;;;;;5057260;28;20165;-61
2021/12/26 00:34:20;;;;;;;9.57;5.13;;;;;;;;;;5060004;28;20236;-61
2021/12/26 00:36:46;;;;;;;9.60;4.73;;;;;;;;;;5063400;28;20239;-61
2021/12/26 00:39:15;;;;;;;12.93;5.03;;;;;;;;;;5065034;28;20220;-60
2021/12/26 00:41:40;;;;;;;12.50;5.00;;;;;;;;;;5058515;28;20180;-61
2021/12/26 00:44:07;;;;;;;9.43;5.40;;;;;;;;;;5055669;28;20183;-59
2021/12/26 00:46:33;;;;;;;6.43;3.80;;;;;;;;;;5055886;28;20234;-62
2021/12/26 00:48:59;;;;;;;11.50;5.77;;;;;;;;;;5055737;28;20246;-61
2021/12/26 00:51:25;;;;;;;7.60;4.93;;;;;;;;;;5055817;28;20169;-61
2021/12/26 00:53:51;;;;;;;8.13;4.30;;;;;;;;;;5055551;28;20628;-61
2021/12/26 00:56:18;;;;;;;8.60;4.83;;;;;;;;;;5055931;28;20395;-61
2021/12/26 00:58:44;;;;;;;8.30;4.63;;;;;;;;;;5055564;28;20256;-61
2021/12/26 01:01:10;;;;;;;8.97;4.73;;;;;;;;;;5055784;28;20177;-61
2021/12/26 01:03:36;;;;;;;8.33;4.67;;;;;;;;;;5055366;28;20169;-61
2021/12/26 01:06:02;;;;;;;9.07;4.43;;;;;;;;;;5055174;28;20234;-61
2021/12/26 01:08:31;;;;;;;10.27;5.17;;;;;;;;;;5054906;28;20172;-60
2021/12/26 01:11:34;;;;;;;12.87;5.07;;;;;;;;;;5055385;28;20169;-61
2021/12/26 01:14:03;;;;;;;10.13;4.23;;;;;;;;;;5055079;28;20460;-61
2021/12/26 01:16:29;;;;;;;8.10;4.33;;;;;;;;;;5055435;28;20193;-61
2021/12/26 01:19:00;;;;;;;8.20;4.50;;;;;;;;;;5054696;28;20594;-61
2021/12/26 01:21:26;;;;;;;8.43;4.83;;;;;;;;;;5055008;28;20157;-61
2021/12/26 01:23:54;;;;;;;8.40;4.57;;;;;;;;;;5054676;28;20169;-60
2021/12/26 01:26:20;;;;;;;11.20;5.07;;;;;;;;;;5054911;28;20173;-61
2021/12/26 01:28:47;;;;;;;8.50;4.37;;;;;;;;;;5054605;28;20531;-62
2021/12/26 01:31:19;;;;;;;7.53;4.80;;;;;;;;;;5054678;28;20161;-62
2021/12/26 01:33:48;;;;;;;8.33;5.03;;;;;;;;;;5054166;28;20169;-62
2021/12/26 01:36:14;;;;;;;10.37;4.70;;;;;;;;;;5054612;28;20605;-61
2021/12/26 01:38:40;;;;;;;12.40;5.07;;;;;;;;;;5054434;28;20179;-61
2021/12/26 01:41:10;;;;;;;8.87;5.23;;;;;;;;;;5054638;28;20164;-61
2021/12/26 01:43:36;;;;;;;9.10;4.80;;;;;;;;;;5054294;28;20702;-59
2021/12/26 01:46:03;;;;;;;10.57;4.87;;;;;;;;;;5054740;28;20184;-61
2021/12/26 01:48:29;;;;;;;10.70;5.57;;;;;;;;;;5054035;28;20195;-61
2021/12/26 01:50:55;;;;;;;12.07;6.07;;;;;;;;;;5054463;28;20588;-61
2021/12/26 01:53:23;;;;;;;7.87;4.77;;;;;;;;;;5053957;28;20204;-61
2021/12/26 01:55:49;;;;;;;12.73;5.97;;;;;;;;;;5054182;28;20510;-61
2021/12/26 01:58:26;;;;;;;7.60;4.83;;;;;;;;;;5054052;28;20165;-61
2021/12/26 02:00:53;;;;;;;10.43;5.80;;;;;;;;;;5054124;28;20164;-61
2021/12/26 02:03:19;;;;;;;9.77;5.43;;;;;;;;;;5053854;28;20653;-61
2021/12/26 02:05:45;;;;;;;8.87;5.23;;;;;;;;;;5054266;28;20248;-60
2021/12/26 02:08:11;;;;;;;7.73;4.93;;;;;;;;;;5053868;28;20648;-61
2021/12/26 02:10:38;;;;;;;9.57;5.43;;;;;;;;;;5053759;28;20515;-61
2021/12/26 02:13:04;;;;;;;9.90;5.37;;;;;;;;;;5053884;28;20165;-61
2021/12/26 02:15:30;;;;;;;8.70;5.13;;;;;;;;;;5053820;28;20551;-61
2021/12/26 02:17:56;;;;;;;8.73;5.07;;;;;;;;;;5054120;28;20168;-61
2021/12/26 02:20:29;;;;;;;10.60;5.03;;;;;;;;;;5054025;28;20177;-61
2021/12/26 02:23:01;;;;;;;10.40;5.40;;;;;;;;;;5053705;28;20573;-59
2021/12/26 02:25:33;;;;;;;8.10;5.10;;;;;;;;;;5053930;28;20160;-60
2021/12/26 02:27:59;;;;;;;9.23;4.77;;;;;;;;;;5054008;28;20157;-61
2021/12/26 02:30:25;;;;;;;8.53;5.10;;;;;;;;;;5053739;28;20525;-61
2021/12/26 02:32:51;;;;;;;8.87;5.47;;;;;;;;;;5053434;28;20165;-61
2021/12/26 02:35:18;;;;;;;11.33;5.80;;;;;;;;;;5053378;28;20187;-61
2021/12/26 02:37:44;;;;;;;9.67;4.93;;;;;;;;;;5053409;28;20592;-61
2021/12/26 02:40:10;;;;;;;14.37;5.90;;;;;;;;;;5053454;28;20246;-61
2021/12/26 02:42:36;;;;;;;12.20;5.30;;;;;;;;;;5053411;28;20172;-61
2021/12/26 02:45:02;;;;;;;10.90;4.97;;;;;;;;;;5053174;28;20169;-61
2021/12/26 02:47:39;;;;;;;8.73;4.87;;;;;;;;;;5053501;28;20176;-61
2021/12/26 02:50:07;;;;;;;10.30;5.30;;;;;;;;;;5053581;28;20192;-61
2021/12/26 02:52:33;;;;;;;10.57;4.87;;;;;;;;;;5053164;28;20319;-61
2021/12/26 02:54:59;;;;;;;9.33;5.13;;;;;;;;;;5053128;28;20803;-61
2021/12/26 02:57:25;;;;;;;8.43;5.10;;;;;;;;;;5053161;28;20260;-61
2021/12/26 02:59:51;;;;;;;8.97;4.50;;;;;;;;;;5052995;28;20169;-61
2021/12/26 03:02:17;;;;;;;8.43;5.03;;;;;;;;;;5053417;28;20252;-61
2021/12/26 03:04:43;;;;;;;9.97;5.37;;;;;;;;;;5053476;28;20680;-61
2021/12/26 03:07:09;;;;;;;7.40;4.57;;;;;;;;;;5053369;28;20666;-60
2021/12/26 03:09:44;;;;;;;9.00;4.90;;;;;;;;;;5053108;28;20492;-61
2021/12/26 03:12:10;;;;;;;8.20;4.70;;;;;;;;;;5053276;28;20491;-61
2021/12/26 03:14:38;;;;;;;9.90;4.80;;;;;;;;;;5053643;28;20176;-61
2021/12/26 03:17:04;;;;;;;9.50;4.93;;;;;;;;;;5053520;28;20184;-61
2021/12/26 03:19:31;;;;;;;9.27;4.33;;;;;;;;;;5053485;28;20195;-61
2021/12/26 03:21:57;;;;;;;11.00;5.40;;;;;;;;;;5053426;28;20176;-61
2021/12/26 03:24:23;;;;;;;8.00;4.53;;;;;;;;;;5051878;28;20519;-61
2021/12/26 03:26:49;;;;;;;7.53;4.60;;;;;;;;;;5053265;28;20184;-61
2021/12/26 03:29:15;;;;;;;7.53;4.27;;;;;;;;;;5052899;28;20519;-61
2021/12/26 03:31:42;;;;;;;8.73;4.17;;;;;;;;;;5052970;28;20180;-61
2021/12/26 03:34:08;;;;;;;7.23;4.27;;;;;;;;;;5053059;28;20180;-61
2021/12/26 03:36:34;;;;;;;8.27;4.17;;;;;;;;;;5053861;28;20180;-60
2021/12/26 03:39:00;;;;;;;9.67;4.77;;;;;;;;;;5053515;28;20173;-59
2021/12/26 03:41:26;;;;;;;5.57;3.27;;;;;;;;;;5053198;28;20176;-60
2021/12/26 03:43:52;;;;;;;5.23;3.47;;;;;;;;;;5053424;28;20173;-61
2021/12/26 03:46:18;;;;;;;12.37;4.30;;;;;;;;;;5053482;28;20172;-61
2021/12/26 03:48:44;;;;;;;7.13;4.03;;;;;;;;;;5053402;28;20200;-61
2021/12/26 03:51:10;;;;;;;6.17;3.60;;;;;;;;;;5053251;28;20173;-61
2021/12/26 03:53:36;;;;;;;5.80;2.70;;;;;;;;;;5053061;28;20185;-60
2021/12/26 03:56:03;;;;;;;6.20;3.67;;;;;;;;;;5053050;28;20180;-61
2021/12/26 03:58:29;;;;;;;8.37;3.67;;;;;;;;;;5056614;28;20188;-59
2021/12/26 04:00:55;;;;;;;4.33;2.53;;;;;;;;;;5056598;28;20196;-61
2021/12/26 04:03:21;;;;;;;8.63;2.87;;;;;;;;;;5056466;28;20627;-61
2021/12/26 04:05:47;;;;;;;7.33;2.90;;;;;;;;;;5056783;28;20173;-61
2021/12/26 04:08:13;;;;;;;4.30;2.40;;;;;;;;;;5056464;28;20608;-61
2021/12/26 04:10:39;;;;;;;3.67;2.27;;;;;;;;;;5056215;28;20197;-61
2021/12/26 04:13:06;;;;;;;5.23;2.50;;;;;;;;;;5056195;28;20177;-60
2021/12/26 04:15:33;;;;;;;5.17;2.50;;;;;;;;;;5056084;28;20244;-61
2021/12/26 04:18:00;;;;;;;4.90;3.07;;;;;;;;;;5056208;28;20716;-61
2021/12/26 04:20:26;;;;;;;4.70;2.90;;;;;;;;;;5056428;28;20176;-60
2021/12/26 04:22:53;;;;;;;7.23;3.70;;;;;;;;;;5056040;28;20593;-61
2021/12/26 04:25:19;;;;;;;9.43;3.43;;;;;;;;;;5056057;28;20476;-60
2021/12/26 04:27:45;;;;;;;6.33;3.23;;;;;;;;;;5055814;28;20605;-60
2021/12/26 04:30:12;;;;;;;7.00;3.33;;;;;;;;;;5055613;28;20193;-60
2021/12/26 04:32:38;;;;;;;8.37;3.53;;;;;;;;;;5056080;28;20173;-60
2021/12/26 04:35:05;;;;;;;6.17;3.17;;;;;;;;;;5055514;28;20477;-61
2021/12/26 04:37:31;;;;;;;4.77;3.30;;;;;;;;;;5056114;28;20235;-61
2021/12/26 04:39:57;;;;;;;10.37;4.37;;;;;;;;;;5055526;28;20608;-60
2021/12/26 04:42:23;;;;;;;4.83;2.90;;;;;;;;;;5055763;28;20172;-60
2021/12/26 04:44:51;;;;;;;6.07;3.60;;;;;;;;;;5055745;28;20177;-60
2021/12/26 04:47:17;;;;;;;8.83;4.20;;;;;;;;;;5055449;28;20623;-60
2021/12/26 04:49:43;;;;;;;6.60;3.23;;;;;;;;;;5056231;28;20188;-60
2021/12/26 04:52:09;;;;;;;5.43;3.53;;;;;;;;;;5056429;28;20620;-60
2021/12/26 04:54:35;;;;;;;5.40;3.27;;;;;;;;;;5056065;28;20156;-60
2021/12/26 04:57:01;;;;;;;6.57;3.07;;;;;;;;;;5055445;28;20161;-60
2021/12/26 04:59:27;;;;;;;10.47;3.60;;;;;;;;;;5055642;28;20176;-60
2021/12/26 05:01:54;;;;;;;6.57;2.83;;;;;;;;;;5055383;28;20644;-60
2021/12/26 05:04:21;;;;;;;5.80;2.83;;;;;;;;;;5054987;28;20592;-61
2021/12/26 05:06:47;;;;;;;5.40;2.90;;;;;;;;;;5054701;28;20523;-60
2021/12/26 05:09:14;;;;;;;5.47;2.93;;;;;;;;;;5055163;28;20193;-60
2021/12/26 05:11:40;;;;;;;5.20;2.90;;;;;;;;;;5055309;28;20255;-60
2021/12/26 05:14:06;;;;;;;6.53;3.13;;;;;;;;;;5055264;28;20180;-60
2021/12/26 05:16:32;;;;;;;3.73;2.63;;;;;;;;;;5054931;28;20161;-60
2021/12/26 05:18:58;;;;;;;4.57;2.80;;;;;;;;;;5054961;28;20177;-60
2021/12/26 05:21:24;;;;;;;6.63;3.10;;;;;;;;;;5054693;28;20280;-60
2021/12/26 05:23:50;;;;;;;5.67;2.73;;;;;;;;;;5054654;28;20244;-60
2021/12/26 05:26:16;;;;;;;6.37;2.57;;;;;;;;;;5054575;28;20169;-60
2021/12/26 05:28:42;;;;;;;4.10;2.67;;;;;;;;;;5054789;28;20254;-60
2021/12/26 05:31:08;;;;;;;4.80;2.63;;;;;;;;;;5054715;28;20165;-59
2021/12/26 05:33:34;;;;;;;7.37;2.57;;;;;;;;;;5054793;28;20212;-60
2021/12/26 05:36:00;;;;;;;7.77;2.83;;;;;;;;;;5054487;28;20176;-57
2021/12/26 05:38:27;;;;;;;5.40;3.20;;;;;;;;;;5054427;28;20165;-57
2021/12/26 05:40:54;;;;;;;3.77;2.67;;;;;;;;;;5054604;28;20185;-58
2021/12/26 05:43:20;;;;;;;5.07;2.67;;;;;;;;;;5054432;28;20244;-58
2021/12/26 05:45:45;;;;;;;4.40;2.57;;;;;;;;;;5054850;28;20212;-57
2021/12/26 05:48:11;;;;;;;3.37;2.37;;;;;;;;;;5058394;28;20244;-60
2021/12/26 05:50:37;;;;;;;6.67;2.70;;;;;;;;;;5056192;28;20541;-60
2021/12/26 05:53:03;;;;;;;6.03;2.60;;;;;;;;;;5055996;28;20609;-60
2021/12/26 05:55:31;;;;;;;7.50;2.73;;;;;;;;;;5056554;28;20177;-59
2021/12/26 05:57:57;;;;;;;3.60;2.37;;;;;;;;;;5056487;28;20674;-60
2021/12/26 06:00:23;;;;;;;4.97;2.80;;;;;;;;;;5056004;28;20164;-60
2021/12/26 06:02:50;;;;;;;3.70;2.33;;;;;;;;;;5056096;28;20207;-60
2021/12/26 06:05:17;;;;;;;6.13;2.93;;;;;;;;;;5056514;28;20184;-60
2021/12/26 06:07:43;;;;;;;8.43;2.97;;;;;;;;;;5056935;28;20226;-60
2021/12/26 06:10:09;;;;;;;5.20;2.63;;;;;;;;;;5056566;28;20189;-60
2021/12/26 06:12:35;;;;;;;5.50;2.50;;;;;;;;;;5055104;28;20226;-59
2021/12/26 06:15:01;;;;;;;4.93;2.67;;;;;;;;;;5055934;28;20172;-60
2021/12/26 06:17:27;;;;;;;3.80;2.67;;;;;;;;;;5055767;28;20172;-60
2021/12/26 06:19:53;;;;;;;5.50;2.80;;;;;;;;;;5055689;28;20169;-60
2021/12/26 06:22:19;;;;;;;7.90;3.17;;;;;;;;;;5055873;28;20180;-60
2021/12/26 06:24:44;;;;;;;5.50;3.03;;;;;;;;;;5055836;28;20177;-59
2021/12/26 06:27:10;;;;;;;3.77;2.60;;;;;;;;;;5055899;28;20800;-59
2021/12/26 06:29:36;;;;;;;6.50;2.67;;;;;;;;;;5053958;28;20203;-59
2021/12/26 06:32:03;;;;;;;4.43;3.00;;;;;;;;;;5054049;28;20169;-62
2021/12/26 06:34:30;;;;;;;4.73;3.27;;;;;;;;;;5053798;28;20192;-61
2021/12/26 06:36:55;;;;;;;6.70;3.17;;;;;;;;;;5053411;28;20175;-59
2021/12/26 06:39:21;;;;;;;6.83;3.00;;;;;;;;;;5053491;28;20251;-61
2021/12/26 06:41:47;;;;;;;7.17;2.87;;;;;;;;;;5053667;28;20260;-61
2021/12/26 06:44:13;;;;;;;6.20;2.97;;;;;;;;;;5053708;28;20500;-61
2021/12/26 06:46:40;;;;;;;7.10;2.97;;;;;;;;;;5053656;28;20634;-61
2021/12/26 06:49:05;;;;;;;3.97;2.50;;;;;;;;;;5053229;28;20199;-61
2021/12/26 06:51:32;;;;;;;4.50;3.33;;;;;;;;;;5053271;28;20161;-61
2021/12/26 06:53:58;;;;;;;5.87;2.60;;;;;;;;;;5053148;28;20230;-60
2021/12/26 06:56:24;;;;;;;6.77;3.20;;;;;;;;;;5053272;28;20165;-62
2021/12/26 06:58:50;;;;;;;5.17;2.63;;;;;;;;;;5053466;28;20487;-62
2021/12/26 07:01:16;;;;;;;5.20;3.27;;;;;;;;;;5053189;28;20618;-60
2021/12/26 07:03:42;;;;;;;5.20;2.93;;;;;;;;;;5053088;28;20173;-61
2021/12/26 07:06:08;;;;;;;5.10;2.97;;;;;;;;;;5053160;28;20183;-60
2021/12/26 07:08:34;;;;;;;4.00;2.60;;;;;;;;;;5053130;28;20185;-61
2021/12/26 07:11:00;;;;;;;5.57;2.63;;;;;;;;;;5053297;28;20165;-60
2021/12/26 07:13:26;;;;;;;4.13;2.73;;;;;;;;;;5053434;28;20184;-61
2021/12/26 07:15:52;;;;;;;5.00;2.80;;;;;;;;;;5053128;28;20165;-61
2021/12/26 07:18:18;;;;;;;2.73;2.43;;;;;;;;;;5053247;28;20184;-60
2021/12/26 07:20:43;;;;;;;5.37;2.87;;;;;;;;;;5053424;28;20522;-60
2021/12/26 07:23:09;;;;;;;4.43;2.77;;;;;;;;;;5053660;28;20640;-60
2021/12/26 07:25:35;;;;;;;4.03;2.80;;;;;;;;;;5053264;28;20604;-61
2021/12/26 07:28:01;;;;;;;3.53;2.87;;;;;;;;;;5053436;28;20527;-61
2021/12/26 07:30:27;;;;;;;3.67;2.80;;;;;;;;;;5053001;28;20185;-61
2021/12/26 07:32:53;;;;;;;7.03;2.90;;;;;;;;;;5056549;28;20550;-60
2021/12/26 07:35:19;;;;;;;7.07;3.30;;;;;;;;;;5056785;28;20157;-61
2021/12/26 07:37:46;;;;;;;5.03;3.00;;;;;;;;;;5056910;28;20169;-59
2021/12/26 07:40:12;;;;;;;7.73;2.70;;;;;;;;;;5057374;28;20172;-61
2021/12/26 07:42:38;;;;;;;6.67;3.43;;;;;;;;;;5057362;28;20212;-59
2021/12/26 07:45:04;;;;;;;4.47;2.90;;;;;;;;;;5062508;28;20180;-60
2021/12/26 07:47:30;;;;;;;4.20;3.00;;;;;;;;;;5070384;28;20259;-61
2021/12/26 07:49:56;;;;;;;5.23;2.87;;;;;;;;;;5069340;28;20196;-59
2021/12/26 07:52:27;;;;;;;4.20;2.63;;;;;;;;;;5069298;28;20516;-60
2021/12/26 07:54:54;;;;;;;5.40;2.77;;;;;;;;;;5072257;28;20156;-61
2021/12/26 07:57:20;;;;;;;6.00;3.13;;;;;;;;;;5075050;28;20239;-61
2021/12/26 07:59:46;;;;;;;4.83;2.83;;;;;;;;;;5075197;28;20173;-59
2021/12/26 08:02:16;;;;;;;3.53;2.43;;;;;;;;;;5074503;28;20173;-61
2021/12/26 08:04:44;;;;;;;4.33;2.80;;;;;;;;;;5075424;28;20224;-61
2021/12/26 08:07:10;;;;;;;5.37;2.60;;;;;;;;;;5079414;28;20145;-59
2021/12/26 08:09:35;;;;;;;3.80;2.57;;;;;;;;;;5078495;28;20197;-62
2021/12/26 08:12:01;;;;;;;5.63;2.77;;;;;;;;;;5078366;28;20163;-61
2021/12/26 08:14:27;;;;;;;3.13;2.07;;;;;;;;;;5069864;28;20161;-59
2021/12/26 08:16:53;;;;;;;4.73;3.20;;;;;;;;;;5060564;28;20475;-60
2021/12/26 08:19:19;;;;;;;5.57;2.80;;;;;;;;;;5060952;28;20239;-60
2021/12/26 08:21:45;;;;;;;4.13;2.60;;;;;;;;;;5060336;28;20165;-59
2021/12/26 08:24:11;;;;;;;5.27;3.20;;;;;;;;;;5058818;28;20165;-60
2021/12/26 08:26:37;;;;;;;2.73;2.30;;;;;;;;;;5057030;28;20180;-60
2021/12/26 08:29:03;;;;;;;4.87;2.80;;;;;;;;;;5056957;28;20684;-59
2021/12/26 08:31:30;;;;;;;5.07;2.83;;;;;;;;;;5057119;28;20161;-60
2021/12/26 08:33:56;;;;;;;4.83;3.30;;;;;;;;;;5056437;28;20601;-60
2021/12/26 08:36:22;;;;;;;5.87;3.77;;;;;;;;;;5056165;28;20191;-60
2021/12/26 08:38:49;;;;;;;6.87;3.30;;;;;;;;;;5056441;28;20169;-62
2021/12/26 08:41:15;;;;;;;6.03;2.93;;;;;;;;;;5056112;28;20160;-61
2021/12/26 08:43:43;;;;;;;5.70;2.97;;;;;;;;;;5056044;28;20547;-60
2021/12/26 08:46:09;;;;;;;4.43;3.20;;;;;;;;;;5056553;28;20230;-59
2021/12/26 08:48:35;;;;;;;5.57;3.23;;;;;;;;;;5057578;28;20192;-60
2021/12/26 08:51:01;;;;;;;6.07;3.43;;;;;;;;;;5060869;28;20157;-60
2021/12/26 08:53:27;;;;;;;7.20;3.00;;;;;;;;;;5060988;28;20176;-61
2021/12/26 08:55:54;;;;;;;4.70;3.30;;;;;;;;;;5061662;28;20165;-61
2021/12/26 08:58:20;;;;;;;6.97;4.20;;;;;;;;;;5058668;28;20256;-60
2021/12/26 09:00:46;;;;;;;5.93;3.40;;;;;;;;;;5057906;28;20176;-62
2021/12/26 09:03:12;;;;;;;8.50;4.53;;;;;;;;;;5054435;28;20185;-59
2021/12/26 09:05:38;;;;;;;9.47;4.23;;;;;;;;;;5056110;28;20610;-60
2021/12/26 09:08:07;;;;;;;8.23;3.83;;;;;;;;;;5055173;28;20168;-61
2021/12/26 09:10:33;;;;;;;7.40;4.30;;;;;;;;;;5055204;28;20754;-60
2021/12/26 09:12:59;;;;;;;7.17;3.90;;;;;;;;;;5054826;28;20252;-59
2021/12/26 09:15:25;;;;;;;6.97;3.80;;;;;;;;;;5054839;28;20208;-61
2021/12/26 09:17:52;;;;;;;10.20;4.57;;;;;;;;;;5054794;28;20179;-60
2021/12/26 09:20:18;;;;;;;8.33;4.33;;;;;;;;;;5054618;28;20564;-60
2021/12/26 09:22:44;;;;;;;8.37;4.23;;;;;;;;;;5054461;28;20252;-61
2021/12/26 09:25:11;;;;;;;9.57;4.27;;;;;;;;;;5054804;28;20193;-59
2021/12/26 09:27:37;;;;;;;8.70;4.10;;;;;;;;;;5054676;28;20593;-61
2021/12/26 09:30:04;;;;;;;8.03;3.50;;;;;;;;;;5054553;28;20692;-61
2021/12/26 09:32:30;;;;;;;5.57;3.60;;;;;;;;;;5054878;28;20611;-60
2021/12/26 09:34:56;;;;;;;5.33;3.13;;;;;;;;;;5054933;28;20165;-61
2021/12/26 09:37:21;;;;;;;6.83;2.80;;;;;;;;;;5054571;28;20180;-61
2021/12/26 09:39:48;;;;;;;6.53;3.20;;;;;;;;;;5054747;28;20191;-61
2021/12/26 09:42:14;;;;;;;4.73;3.20;;;;;;;;;;5055214;28;20169;-60
2021/12/26 09:44:40;;;;;;;5.90;3.37;;;;;;;;;;5055175;28;20184;-61
2021/12/26 09:47:07;;;;;;;4.53;3.13;;;;;;;;;;5054968;28;20165;-60
2021/12/26 09:49:33;;;;;;;4.20;2.83;;;;;;;;;;5054729;28;20205;-61
2021/12/26 09:51:59;;;;;;;6.33;2.93;;;;;;;;;;5054745;28;20555;-60
2021/12/26 09:54:25;;;;;;;7.80;3.33;;;;;;;;;;5053500;28;20255;-60
2021/12/26 09:56:51;;;;;;;3.07;2.50;;;;;;;;;;5054323;28;20160;-60
2021/12/26 09:59:18;;;;;;;4.97;3.00;;;;;;;;;;5054243;28;20169;-60
2021/12/26 10:01:57;;;;;;;4.63;2.63;;;;;;;;;;5054205;28;20168;-60
2021/12/26 10:04:25;;;;;;;4.57;3.05;;;;;;;;;;5054419;28;20165;-60
2021/12/26 10:06:53;;;;;;;4.37;2.90;;;;;;;;;;5053954;28;20165;-60
2021/12/26 10:09:21;;;;;;;5.05;2.83;;;;;;;;;;5054138;28;20284;-59
2021/12/26 10:11:48;;;;;;;3.92;2.88;;;;;;;;;;5054234;28;20184;-61
2021/12/26 10:14:15;;;;;;;3.90;3.13;;;;;;;;;;5053909;28;20200;-60
2021/12/26 10:16:43;;;;;;;7.50;3.53;;;;;;;;;;5054022;28;20267;-60
2021/12/26 10:19:09;;;;;;;3.90;2.72;;;;;;;;;;5054332;28;20210;-60
2021/12/26 10:21:37;;;;;;;4.40;3.03;;;;;;;;;;5054002;28;20168;-60
2021/12/26 10:24:07;;;;;;;6.07;3.17;;;;;;;;;;5053668;28;20263;-61
2021/12/26 10:26:35;;;;;;;5.40;3.05;;;;;;;;;;5053871;28;20176;-60
2021/12/26 10:29:21;;;;;;;5.55;3.25;;;;;;;;;;5054210;28;20212;-60
2021/12/26 10:31:53;;;;;;;6.32;3.47;;;;;;;;;;5054207;28;20240;-60
2021/12/26 10:34:21;;;;;;;5.28;2.53;;;;;;;;;;5053656;28;20168;-60
2021/12/26 10:36:48;;;;;;;4.57;2.80;;;;;;;;;;5053652;28;20550;-58
2021/12/26 10:39:17;;;;;;;4.97;3.15;;;;;;;;;;5052696;28;20225;-60
2021/12/26 10:41:43;;;;;;;3.70;2.70;;;;;;;;;;5054143;28;20181;-60
2021/12/26 10:44:20;;;;;;;4.95;2.75;;;;;;;;;;5052753;28;20538;-60
2021/12/26 10:46:50;;;;;;;4.32;2.67;;;;;;;;;;5054003;28;20172;-60
2021/12/26 10:49:22;;;;;;;5.25;2.80;;;;;;;;;;5053917;28;20197;-60
2021/12/26 10:51:48;;;;;;;4.30;2.63;;;;;;;;;;5053510;28;20161;-60
2021/12/26 10:54:16;;;;;;;5.43;2.95;;;;;;;;;;5053383;28;20631;-61
2021/12/26 10:56:42;;;;;;;4.57;2.50;;;;;;;;;;5053884;28;20171;-60
2021/12/26 10:59:18;;;;;;;5.07;2.63;;;;;;;;;;5053378;28;20189;-60
2021/12/26 11:01:44;;;;;;;5.00;2.83;;;;;;;;;;5053449;28;20708;-60
2021/12/26 11:04:12;;;;;;;3.45;2.60;;;;;;;;;;5053617;28;20639;-60
2021/12/26 11:06:57;;;;;;;3.95;2.25;;;;;;;;;;5056654;28;20161;-61
2021/12/26 11:09:24;;;;;;;4.88;2.78;;;;;;;;;;5057555;28;20188;-60
2021/12/26 11:12:06;;;;;;;3.83;2.63;;;;;;;;;;5057453;28;20164;-61
2021/12/26 11:14:33;;;;;;;3.17;2.13;;;;;;;;;;5057573;28;20157;-61
2021/12/26 11:16:59;;;;;;;2.92;1.92;;;;;;;;;;5057531;28;20199;-62
2021/12/26 11:19:41;;;;;;;4.40;2.42;;;;;;;;;;5057704;28;20169;-61
2021/12/26 11:22:07;;;;;;;4.95;2.67;;;;;;;;;;5057647;28;20230;-60
2021/12/26 11:24:34;;;;;;;4.40;2.78;;;;;;;;;;5057481;28;20234;-61
2021/12/26 11:27:02;;;;;;;4.72;2.70;;;;;;;;;;5057138;28;20214;-61
2021/12/26 11:29:28;;;;;;;4.78;2.40;;;;;;;;;;5057373;28;20632;-60
2021/12/26 11:31:54;;;;;;;5.07;2.58;;;;;;;;;;5057573;28;20172;-61
2021/12/26 11:34:20;;;;;;;3.78;2.58;;;;;;;;;;5057676;28;20223;-60
2021/12/26 11:36:49;;;;;;;2.28;1.98;;;;;;;;;;5057404;28;20165;-61
2021/12/26 11:39:15;;;;;;;3.85;2.17;;;;;;;;;;5056926;28;20225;-61
2021/12/26 11:41:52;;;;;;;3.55;2.15;;;;;;;;;;5057082;28;20169;-62
2021/12/26 11:44:30;;;;;;;4.03;2.28;;;;;;;;;;5057194;28;20551;-61
2021/12/26 11:47:06;;;;;;;2.90;1.83;;;;;;;;;;5057474;28;20558;-59
2021/12/26 11:49:42;;;;;;;3.22;2.25;;;;;;;;;;5057598;28;20195;-59
2021/12/26 11:52:22;;;;;;;2.78;2.03;;;;;;;;;;5056970;28;20153;-61
2021/12/26 11:55:07;;;;;;;2.65;2.20;;;;;;;;;;5056510;28;20161;-61
2021/12/26 11:57:35;;;;;;;3.35;2.30;;;;;;;;;;5056619;28;20554;-59
2021/12/26 12:00:12;;;;;;;4.20;2.40;;;;;;;;;;5056474;28;20169;-59
2021/12/26 12:02:44;;;;;;;6.28;3.05;;;;;;;;;;5056524;28;20677;-60
2021/12/26 12:05:17;;;;;;;5.43;2.92;;;;;;;;;;5056725;28;20177;-60
2021/12/26 12:07:48;;;;;;;3.17;2.55;;;;;;;;;;5056488;28;20308;-60
2021/12/26 12:10:33;;;;;;;2.63;2.33;;;;;;;;;;5056431;28;20189;-60
2021/12/26 12:12:59;;;;;;;6.13;3.05;;;;;;;;;;5056461;28;20235;-62
2021/12/26 12:15:43;;;;;;;4.20;2.88;;;;;;;;;;5056202;28;20165;-60
2021/12/26 12:18:11;;;;;;;4.35;3.08;;;;;;;;;;5055486;28;20207;-59
2021/12/26 12:20:37;;;;;;;3.47;2.58;;;;;;;;;;5055952;28;20234;-60
2021/12/26 12:23:09;;;;;;;5.32;3.17;;;;;;;;;;5056052;28;20255;-61
2021/12/26 12:25:35;;;;;;;4.88;3.17;;;;;;;;;;5056316;28;20203;-61
2021/12/26 12:28:20;;;;;;;5.18;2.60;;;;;;;;;;5056327;28;20204;-61
2021/12/26 12:30:46;;;;;;;4.30;2.70;;;;;;;;;;5056146;28;20195;-58
2021/12/26 12:33:21;;;;;;;5.22;3.22;;;;;;;;;;5056132;28;20187;-60
2021/12/26 12:35:52;;;;;;;4.38;3.05;;;;;;;;;;5055506;28;20169;-60
2021/12/26 12:38:22;;;;;;;3.38;2.45;;;;;;;;;;5055714;28;20172;-60
2021/12/26 12:40:48;;;;;;;4.75;2.95;;;;;;;;;;5055846;28;20180;-60
2021/12/26 12:43:17;;;;;;;4.65;3.08;;;;;;;;;;5055444;28;20180;-60
2021/12/26 12:45:57;;;;;;;5.00;2.97;;;;;;;;;;5055811;28;20176;-60
2021/12/26 12:48:24;;;;;;;5.00;2.92;;;;;;;;;;5055585;28;20161;-59
2021/12/26 12:50:52;;;;;;;4.30;3.00;;;;;;;;;;5055596;28;20200;-61
2021/12/26 12:53:37;;;;;;;6.90;3.00;;;;;;;;;;5055568;28;20220;-61
2021/12/26 12:56:03;;;;;;;3.33;2.50;;;;;;;;;;5055682;28;20525;-59
2021/12/26 12:58:32;;;;;;;3.80;2.53;;;;;;;;;;5055536;28;20596;-58
2021/12/26 13:01:02;;;;;;;4.65;3.00;;;;;;;;;;5055549;28;20180;-60
2021/12/26 13:03:29;;;;;;;5.82;2.88;;;;;;;;;;5055561;28;20165;-59
2021/12/26 13:05:55;;;;;;;5.07;2.83;;;;;;;;;;5055516;28;20182;-60
2021/12/26 13:08:22;;;;;;;6.38;3.38;;;;;;;;;;5055499;28;20180;-60
2021/12/26 13:10:57;;;;;;;6.07;3.00;;;;;;;;;;5055373;28;20188;-59
2021/12/26 13:13:24;;;;;;;4.88;3.00;;;;;;;;;;5055229;28;20596;-60
2021/12/26 13:15:50;;;;;;;6.60;3.22;;;;;;;;;;5055248;28;20165;-59
2021/12/26 13:18:17;;;;;;;6.20;3.28;;;;;;;;;;5055203;28;20175;-60
2021/12/26 13:20:43;;;;;;;8.55;3.50;;;;;;;;;;5054994;28;20173;-61
2021/12/26 13:23:09;;;;;;;5.93;3.72;;;;;;;;;;5055089;28;20526;-60
2021/12/26 13:25:35;;;;;;;7.60;3.75;;;;;;;;;;5054758;28;20252;-61
2021/12/26 13:28:02;;;;;;;6.93;3.42;;;;;;;;;;5055114;28;20268;-60
2021/12/26 13:30:29;;;;;;;7.50;3.67;;;;;;;;;;5054143;28;20283;-60
2021/12/26 13:32:55;;;;;;;7.35;3.65;;;;;;;;;;5054780;28;20172;-59
2021/12/26 13:35:35;;;;;;;5.35;3.25;;;;;;;;;;5054800;28;20247;-59
2021/12/26 13:38:02;;;;;;;6.05;3.17;;;;;;;;;;5055298;28;20164;-60
2021/12/26 13:40:33;;;;;;;5.22;3.38;;;;;;;;;;5054583;28;20164;-62
2021/12/26 13:42:59;;;;;;;7.00;2.85;;;;;;;;;;5054701;28;20250;-59
2021/12/26 13:45:29;;;;;;;4.80;2.80;;;;;;;;;;5054480;28;20223;-59
2021/12/26 13:47:55;;;;;;;3.35;2.50;;;;;;;;;;5054377;28;20259;-60
2021/12/26 13:50:21;;;;;;;3.90;2.38;;;;;;;;;;5054260;28;20575;-60
2021/12/26 13:52:58;;;;;;;4.75;2.42;;;;;;;;;;5054026;28;20660;-60
2021/12/26 13:55:24;;;;;;;4.60;2.85;;;;;;;;;;5054807;28;20153;-58
2021/12/26 13:57:57;;;;;;;3.55;2.42;;;;;;;;;;5054098;28;20164;-60
2021/12/26 14:00:23;;;;;;;5.40;2.80;;;;;;;;;;5053891;28;20665;-59
2021/12/26 14:02:49;;;;;;;4.80;2.60;;;;;;;;;;5053969;28;20165;-59
2021/12/26 14:05:18;;;;;;;5.22;2.50;;;;;;;;;;5054220;28;20184;-60
2021/12/26 14:07:49;;;;;;;7.00;2.80;;;;;;;;;;5054684;28;20165;-60
2021/12/26 14:10:16;;;;;;;5.68;2.70;;;;;;;;;;5054084;28;20173;-60
2021/12/26 14:12:47;;;;;;;3.97;2.80;;;;;;;;;;5053867;28;20161;-59
2021/12/26 14:15:24;;;;;;;7.10;2.70;;;;;;;;;;5053769;28;20615;-59
2021/12/26 14:17:52;;;;;;;5.75;3.00;;;;;;;;;;5054151;28;20176;-60
2021/12/26 14:20:18;;;;;;;5.50;2.83;;;;;;;;;;5053895;28;20215;-60
2021/12/26 14:22:44;;;;;;;5.68;3.00;;;;;;;;;;5053832;28;20192;-60
2021/12/26 14:25:13;;;;;;;4.88;2.97;;;;;;;;;;5054039;28;20599;-60
2021/12/26 14:27:41;;;;;;;4.90;2.95;;;;;;;;;;5053599;28;20234;-60
2021/12/26 14:30:08;;;;;;;6.88;3.28;;;;;;;;;;5052501;28;20193;-60
2021/12/26 14:32:34;;;;;;;6.50;3.10;;;;;;;;;;5053645;28;20164;-60
2021/12/26 14:35:00;;;;;;;6.43;3.60;;;;;;;;;;5053976;28;20161;-60
2021/12/26 14:37:26;;;;;;;4.28;2.95;;;;;;;;;;5053731;28;20167;-59
2021/12/26 14:39:55;;;;;;;8.75;2.85;;;;;;;;;;5053622;28;20183;-58
2021/12/26 14:42:24;;;;;;;7.10;3.40;;;;;;;;;;5053407;28;20161;-60
2021/12/26 14:44:51;;;;;;;4.95;3.00;;;;;;;;;;5054070;28;20165;-59